Time;durP1;ratioP1;P1;durP2;ratioP2;P2;SDS_P1;SDS_P2;PMS_P1;PMS_P2;Temp;Humidity;BMP_temperature;BMP_pressure;BME280_temperature;BME280_humidity;BME280_pressure;Samples;Min_cycle;Max_cycle;Signal;HPM_P1;HPM_P2
2023/05/11 00:02:45;;;;;;;9.60;8.93;;;13.60;71.50;;;;;;6204995;28;20242;-83
2023/05/11 00:05:50;;;;;;;9.97;9.37;;;13.60;71.60;;;;;;6214570;28;20234;-84
2023/05/11 00:08:54;;;;;;;9.77;9.13;;;13.50;71.70;;;;;;6197343;28;20242;-84
2023/05/11 00:11:57;;;;;;;10.53;9.77;;;13.50;71.80;;;;;;6203684;28;20239;-84
2023/05/11 00:15:00;;;;;;;9.80;9.07;;;13.50;71.90;;;;;;6195590;28;20750;-83
2023/05/11 00:18:03;;;;;;;11.07;10.37;;;13.50;72.00;;;;;;6205111;28;20316;-83
2023/05/11 00:21:08;;;;;;;10.13;9.33;;;13.40;72.10;;;;;;6166652;28;20307;-83
2023/05/11 00:24:11;;;;;;;11.27;10.33;;;13.30;72.20;;;;;;6205999;28;20409;-84
2023/05/11 00:27:14;;;;;;;10.13;9.43;;;13.30;72.30;;;;;;6198605;28;20250;-84
2023/05/11 00:30:18;;;;;;;9.63;9.03;;;13.30;72.40;;;;;;6205457;28;20299;-85
2023/05/11 00:33:21;;;;;;;10.33;9.60;;;13.30;72.40;;;;;;6209134;28;20246;-84
2023/05/11 00:36:26;;;;;;;10.60;9.90;;;13.30;72.50;;;;;;6196224;28;20381;-83
2023/05/11 00:39:29;;;;;;;11.07;10.27;;;13.30;72.60;;;;;;6206943;28;20227;-86
2023/05/11 00:42:33;;;;;;;10.57;9.77;;;13.20;72.80;;;;;;6216706;28;20250;-84
2023/05/11 00:45:36;;;;;;;11.00;10.30;;;13.20;72.80;;;;;;6203611;28;20249;-83
2023/05/11 00:48:39;;;;;;;9.80;9.10;;;13.10;72.80;;;;;;6200519;28;20386;-83
2023/05/11 00:51:44;;;;;;;12.13;11.17;;;13.10;72.80;;;;;;6201595;28;20634;-83
2023/05/11 00:54:48;;;;;;;11.10;10.30;;;13.10;73.00;;;;;;6201648;28;20261;-84
2023/05/11 00:57:51;;;;;;;10.93;10.20;;;13.10;73.10;;;;;;6217163;28;20306;-84
2023/05/11 01:00:54;;;;;;;12.23;11.03;;;13.10;73.20;;;;;;6202966;28;20942;-83
2023/05/11 01:03:57;;;;;;;11.60;10.73;;;13.10;73.30;;;;;;6207327;28;20254;-83
2023/05/11 01:07:08;;;;;;;10.63;9.93;;;13.00;73.40;;;;;;6208110;28;21028;-84
2023/05/11 01:10:19;;;;;;;10.13;9.43;;;13.00;73.50;;;;;;6210878;28;20863;-84
2023/05/11 01:13:30;;;;;;;11.10;10.13;;;13.00;73.50;;;;;;6192866;28;20236;-84
2023/05/11 01:16:40;;;;;;;11.57;10.67;;;13.00;73.50;;;;;;6204491;28;20247;-84
2023/05/11 01:19:48;;;;;;;11.10;10.30;;;12.90;73.70;;;;;;6205336;28;20228;-83
2023/05/11 01:23:15;;;;;;;11.13;10.33;;;12.90;73.80;;;;;;6197851;28;20631;-84
2023/05/11 01:26:42;;;;;;;11.03;10.33;;;12.90;73.80;;;;;;6193114;28;20232;-84
2023/05/11 01:29:56;;;;;;;11.43;10.63;;;12.90;73.80;;;;;;6191317;28;20828;-82
2023/05/11 01:33:07;;;;;;;13.10;12.00;;;12.80;73.90;;;;;;6209756;28;20877;-83
2023/05/11 01:36:12;;;;;;;16.73;15.33;;;12.80;74.20;;;;;;6191129;28;20255;-84
2023/05/11 01:39:19;;;;;;;19.07;15.90;;;12.80;74.60;;;;;;6203690;28;20231;-84
2023/05/11 01:42:28;;;;;;;19.00;17.07;;;12.90;75.00;;;;;;6214167;28;20259;-82
2023/05/11 01:45:34;;;;;;;18.57;16.83;;;12.90;75.30;;;;;;6196236;28;21456;-83
2023/05/11 01:48:42;;;;;;;16.30;14.80;;;12.90;75.20;;;;;;6206300;28;20740;-84
2023/05/11 01:51:50;;;;;;;14.17;13.03;;;12.90;75.20;;;;;;6204299;28;20240;-83
2023/05/11 01:54:56;;;;;;;15.47;14.17;;;12.90;75.10;;;;;;6209190;28;20344;-84
2023/05/11 01:58:00;;;;;;;15.20;13.73;;;12.90;75.00;;;;;;6202969;28;20242;-84
2023/05/11 02:01:05;;;;;;;14.00;12.90;;;12.80;74.90;;;;;;6207964;28;20244;-84
2023/05/11 02:04:12;;;;;;;12.77;11.80;;;12.80;74.80;;;;;;6208080;28;20243;-84
2023/05/11 02:07:19;;;;;;;12.50;11.60;;;12.80;74.70;;;;;;6208463;28;20259;-84
2023/05/11 02:10:25;;;;;;;12.73;11.73;;;12.70;74.70;;;;;;6196077;28;20302;-83
2023/05/11 02:13:30;;;;;;;12.60;11.70;;;12.70;74.70;;;;;;6208943;28;20239;-82
2023/05/11 02:16:34;;;;;;;12.70;11.60;;;12.60;74.70;;;;;;6198685;28;20377;-83
2023/05/11 02:19:39;;;;;;;15.17;13.87;;;12.60;74.80;;;;;;6183193;28;20238;-84
2023/05/11 02:22:43;;;;;;;15.67;14.40;;;12.50;75.20;;;;;;6196019;28;20232;-83
2023/05/11 02:25:48;;;;;;;13.93;12.87;;;12.50;75.40;;;;;;6199293;28;20727;-84
2023/05/11 02:28:51;;;;;;;13.73;12.63;;;12.50;75.40;;;;;;6206295;28;20241;-84
2023/05/11 02:32:00;;;;;;;13.63;12.53;;;12.50;75.50;;;;;;6209364;28;20243;-84
2023/05/11 02:35:11;;;;;;;14.63;13.33;;;12.50;75.50;;;;;;6208758;28;20236;-82
2023/05/11 02:38:17;;;;;;;13.97;12.87;;;12.50;76.00;;;;;;6199888;28;20239;-83
2023/05/11 02:41:26;;;;;;;14.07;12.97;;;12.50;75.70;;;;;;6207791;28;20251;-83
2023/05/11 02:44:34;;;;;;;14.67;13.47;;;12.50;75.70;;;;;;6190952;28;20236;-84
2023/05/11 02:47:42;;;;;;;13.40;12.00;;;12.50;75.70;;;;;;6204020;28;20262;-83
2023/05/11 02:50:47;;;;;;;14.13;12.93;;;12.50;75.60;;;;;;6203830;28;20232;-82
2023/05/11 02:53:54;;;;;;;12.03;11.23;;;12.50;75.20;;;;;;6204325;28;20228;-82
2023/05/11 02:56:58;;;;;;;12.10;11.30;;;12.50;75.10;;;;;;6209043;28;20243;-83
2023/05/11 03:00:03;;;;;;;11.77;10.87;;;12.50;74.90;;;;;;6201233;28;20236;-83
2023/05/11 03:03:06;;;;;;;11.97;11.17;;;12.40;74.80;;;;;;6206109;28;20368;-83
2023/05/11 03:06:13;;;;;;;14.73;13.33;;;12.30;74.70;;;;;;6199096;28;20242;-83
2023/05/11 03:09:18;;;;;;;12.40;11.50;;;12.40;74.60;;;;;;6187513;28;20317;-83
2023/05/11 03:12:21;;;;;;;12.17;11.37;;;12.30;74.60;;;;;;6199767;28;20235;-82
2023/05/11 03:15:25;;;;;;;12.07;11.13;;;12.30;74.30;;;;;;6190902;28;20911;-83
2023/05/11 03:18:29;;;;;;;12.13;11.33;;;12.30;73.80;;;;;;6189224;28;20258;-84
2023/05/11 03:21:36;;;;;;;11.93;11.10;;;12.30;73.60;;;;;;6244110;28;20235;-82
2023/05/11 03:24:40;;;;;;;10.67;9.97;;;12.30;73.40;;;;;;6240013;28;20250;-80
2023/05/11 03:27:45;;;;;;;11.97;10.97;;;12.30;73.30;;;;;;6230887;28;20231;-83
2023/05/11 03:30:50;;;;;;;11.63;10.80;;;12.30;73.30;;;;;;6204975;28;20929;-81
2023/05/11 03:33:53;;;;;;;11.37;10.67;;;12.30;73.10;;;;;;6200860;28;20275;-80
2023/05/11 03:36:59;;;;;;;11.87;11.07;;;12.20;72.80;;;;;;6207044;28;20514;-80
2023/05/11 03:40:04;;;;;;;12.77;11.70;;;12.20;72.80;;;;;;6196085;28;20731;-81
2023/05/11 03:43:10;;;;;;;10.60;9.90;;;12.20;72.40;;;;;;6205507;28;20236;-82
2023/05/11 03:46:20;;;;;;;10.57;9.87;;;12.20;72.20;;;;;;6211264;28;20779;-78
2023/05/11 03:49:25;;;;;;;11.90;11.07;;;12.20;72.20;;;;;;6200316;28;20232;-82
2023/05/11 03:52:30;;;;;;;10.90;10.27;;;12.20;72.00;;;;;;6190372;28;20329;-82
2023/05/11 03:55:33;;;;;;;12.17;11.07;;;12.20;71.70;;;;;;6212972;28;20319;-81
2023/05/11 03:58:39;;;;;;;12.00;10.93;;;12.30;71.40;;;;;;6201678;28;20239;-80
2023/05/11 04:01:43;;;;;;;11.40;10.50;;;12.20;71.10;;;;;;6197390;28;20312;-81
2023/05/11 04:04:47;;;;;;;11.87;10.93;;;12.20;70.90;;;;;;6194960;28;20239;-81
2023/05/11 04:07:52;;;;;;;11.37;10.67;;;12.20;70.80;;;;;;6203357;28;20835;-78
2023/05/11 04:10:55;;;;;;;11.57;10.77;;;12.20;70.50;;;;;;6203771;28;20863;-80
2023/05/11 04:13:58;;;;;;;10.77;9.97;;;12.20;70.50;;;;;;6211844;28;20242;-81
2023/05/11 04:17:01;;;;;;;12.73;11.50;;;12.30;70.30;;;;;;6220528;28;20253;-78
2023/05/11 04:20:05;;;;;;;12.50;11.60;;;12.20;69.80;;;;;;6209306;28;20227;-81
2023/05/11 04:23:11;;;;;;;10.80;10.10;;;12.20;69.90;;;;;;6198272;28;20240;-80
2023/05/11 04:26:14;;;;;;;11.90;11.20;;;12.30;69.80;;;;;;6196170;28;20235;-81
2023/05/11 04:29:17;;;;;;;11.70;10.83;;;12.30;69.20;;;;;;6205623;28;20237;-80
2023/05/11 04:32:20;;;;;;;11.03;10.23;;;12.30;68.70;;;;;;6195806;28;20360;-82
2023/05/11 04:35:23;;;;;;;11.73;10.73;;;12.30;68.70;;;;;;6201175;28;20241;-82
2023/05/11 04:38:28;;;;;;;9.93;9.43;;;12.30;68.40;;;;;;6195235;28;20791;-78
2023/05/11 04:41:31;;;;;;;10.00;9.27;;;12.40;68.40;;;;;;6214887;28;20879;-80
2023/05/11 04:44:35;;;;;;;10.37;9.53;;;12.50;68.20;;;;;;6207086;28;20231;-81
2023/05/11 04:47:38;;;;;;;11.40;10.17;;;12.50;67.70;;;;;;6200521;28;20235;-79
2023/05/11 04:50:41;;;;;;;10.67;9.87;;;12.60;67.30;;;;;;6198644;28;20248;-81
2023/05/11 04:53:46;;;;;;;13.90;9.37;;;12.70;66.90;;;;;;6197531;28;20250;-81
2023/05/11 04:56:52;;;;;;;10.33;8.97;;;12.80;66.80;;;;;;6206400;28;20243;-84
2023/05/11 04:59:55;;;;;;;9.40;8.77;;;13.00;66.70;;;;;;6200684;28;20895;-81
2023/05/11 05:02:59;;;;;;;9.37;8.73;;;13.10;66.20;;;;;;6203714;28;20311;-79
2023/05/11 05:06:02;;;;;;;10.43;9.50;;;13.30;65.50;;;;;;6190269;28;20233;-79
2023/05/11 05:09:07;;;;;;;9.40;8.67;;;13.50;65.00;;;;;;6177570;28;20240;-80
2023/05/11 05:12:10;;;;;;;8.20;7.70;;;13.60;64.90;;;;;;6192944;28;20823;-81
2023/05/11 05:15:13;;;;;;;8.60;8.10;;;13.90;64.70;;;;;;6203054;28;20503;-79
2023/05/11 05:18:16;;;;;;;9.47;8.60;;;14.10;64.10;;;;;;6176424;28;20306;-79
2023/05/11 05:21:20;;;;;;;8.53;7.97;;;14.30;63.00;;;;;;6208845;28;20241;-80
2023/05/11 05:24:24;;;;;;;8.90;8.30;;;14.50;62.70;;;;;;6203950;28;20318;-80
2023/05/11 05:27:28;;;;;;;9.17;8.47;;;14.70;61.90;;;;;;6201193;28;20231;-81
2023/05/11 05:30:35;;;;;;;8.23;7.73;;;14.90;61.60;;;;;;6198605;28;20748;-81
2023/05/11 05:33:39;;;;;;;8.27;7.80;;;15.10;61.70;;;;;;6210187;28;20243;-81
2023/05/11 05:36:42;;;;;;;8.80;8.30;;;15.40;60.90;;;;;;6214093;28;20235;-80
2023/05/11 05:39:47;;;;;;;9.00;8.30;;;15.50;60.20;;;;;;6207429;28;20236;-81
2023/05/11 05:42:50;;;;;;;8.77;8.10;;;15.70;60.10;;;;;;6200600;28;20256;-80
2023/05/11 05:45:53;;;;;;;7.80;7.50;;;15.80;59.40;;;;;;6197673;28;20243;-81
2023/05/11 05:48:57;;;;;;;8.50;7.73;;;16.00;59.20;;;;;;6199769;28;20743;-84
2023/05/11 05:52:05;;;;;;;7.50;7.00;;;16.10;58.90;;;;;;6206891;28;20250;-80
2023/05/11 05:55:10;;;;;;;8.43;7.93;;;16.40;59.00;;;;;;6208486;28;20239;-79
2023/05/11 05:58:12;;;;;;;8.37;7.70;;;16.70;58.20;;;;;;6204120;28;20281;-81
2023/05/11 06:01:16;;;;;;;7.67;7.17;;;17.00;57.70;;;;;;6216282;28;20234;-79
2023/05/11 06:04:19;;;;;;;7.30;6.73;;;17.20;57.30;;;;;;6208994;28;20642;-80
2023/05/11 06:07:22;;;;;;;7.50;6.70;;;17.20;56.40;;;;;;6210074;28;20928;-78
2023/05/11 06:10:27;;;;;;;7.53;6.77;;;17.50;56.20;;;;;;6204441;28;20239;-79
2023/05/11 06:13:30;;;;;;;7.73;7.13;;;17.60;56.20;;;;;;6211221;28;20712;-79
2023/05/11 06:16:33;;;;;;;9.53;7.13;;;17.80;56.50;;;;;;6212981;28;20739;-79
2023/05/11 06:19:37;;;;;;;6.10;5.80;;;18.10;56.00;;;;;;6195943;28;20297;-79
2023/05/11 06:22:40;;;;;;;7.10;6.53;;;18.40;55.10;;;;;;6200932;28;20291;-80
2023/05/11 06:25:44;;;;;;;8.57;6.73;;;18.60;54.20;;;;;;6198578;28;20243;-79
2023/05/11 06:28:47;;;;;;;5.97;5.63;;;18.70;54.00;;;;;;6204249;28;20315;-81
2023/05/11 06:31:51;;;;;;;6.27;5.70;;;18.90;53.70;;;;;;6207234;28;20240;-78
2023/05/11 06:34:54;;;;;;;7.70;6.07;;;19.10;53.10;;;;;;6191259;28;20450;-78
2023/05/11 06:37:58;;;;;;;5.90;5.60;;;19.20;52.50;;;;;;6185894;28;20232;-79
2023/05/11 06:41:02;;;;;;;6.47;5.90;;;19.10;52.70;;;;;;6211301;28;20244;-79
2023/05/11 06:44:05;;;;;;;6.33;5.50;;;19.40;53.20;;;;;;6203524;28;20262;-80
2023/05/11 06:47:09;;;;;;;5.83;5.40;;;19.50;52.40;;;;;;6202265;28;20644;-79
2023/05/11 06:50:12;;;;;;;7.73;5.80;;;19.50;52.60;;;;;;6215910;28;20338;-80
2023/05/11 06:53:16;;;;;;;9.30;5.70;;;19.70;52.20;;;;;;6206755;28;20805;-79
2023/05/11 06:56:21;;;;;;;6.20;5.60;;;19.70;51.80;;;;;;6203028;28;20907;-78
2023/05/11 06:59:24;;;;;;;5.70;5.20;;;19.50;51.90;;;;;;6202879;28;20736;-80
2023/05/11 07:02:27;;;;;;;5.70;5.30;;;19.50;51.90;;;;;;6202018;28;20235;-80
2023/05/11 07:05:31;;;;;;;5.83;5.53;;;19.50;52.50;;;;;;6197161;28;20695;-79
2023/05/11 07:08:34;;;;;;;6.17;5.60;;;19.70;51.30;;;;;;6193258;28;20829;-79
2023/05/11 07:11:39;;;;;;;5.10;4.70;;;19.70;51.50;;;;;;6203208;28;20246;-81
2023/05/11 07:14:42;;;;;;;5.03;4.73;;;19.70;51.50;;;;;;6198115;28;20239;-80
2023/05/11 07:17:47;;;;;;;4.77;4.40;;;19.90;51.50;;;;;;6207235;28;20243;-78
2023/05/11 07:20:50;;;;;;;4.60;4.40;;;20.00;51.50;;;;;;6203980;28;20317;-81
2023/05/11 07:23:53;;;;;;;4.77;4.47;;;20.00;52.20;;;;;;6206046;28;20798;-80
2023/05/11 07:26:57;;;;;;;4.50;4.30;;;20.10;51.50;;;;;;6214062;28;20246;-79
2023/05/11 07:30:00;;;;;;;6.97;4.23;;;20.20;51.50;;;;;;6196746;28;20274;-76
2023/05/11 07:33:05;;;;;;;4.23;4.13;;;20.00;50.50;;;;;;6189623;28;20255;-78
2023/05/11 07:36:09;;;;;;;5.20;4.80;;;19.90;50.50;;;;;;6190581;28;20265;-78
2023/05/11 07:39:12;;;;;;;4.50;4.40;;;19.90;51.40;;;;;;6189945;28;20789;-82
2023/05/11 07:42:16;;;;;;;5.47;5.00;;;19.80;51.20;;;;;;6208845;28;20228;-78
2023/05/11 07:45:19;;;;;;;5.37;4.33;;;19.70;51.10;;;;;;6224250;28;20246;-77
2023/05/11 07:48:23;;;;;;;4.40;4.27;;;19.80;50.30;;;;;;6227098;28;20302;-80
2023/05/11 07:51:25;;;;;;;4.53;4.17;;;19.90;51.50;;;;;;6244602;28;20288;-78
2023/05/11 07:54:29;;;;;;;4.33;4.10;;;19.90;50.20;;;;;;6249351;28;20237;-78
2023/05/11 07:57:33;;;;;;;4.67;4.40;;;19.90;50.70;;;;;;6235913;28;20226;-80
2023/05/11 08:00:36;;;;;;;4.23;3.97;;;19.90;51.40;;;;;;6217207;28;20243;-78
2023/05/11 08:03:40;;;;;;;7.43;4.40;;;20.00;51.10;;;;;;6237879;28;20288;-77
2023/05/11 08:06:43;;;;;;;5.27;4.20;;;19.80;51.10;;;;;;6235371;28;20251;-77
2023/05/11 08:09:46;;;;;;;4.40;4.10;;;19.70;50.30;;;;;;6226931;28;20252;-78
2023/05/11 08:12:51;;;;;;;4.23;3.80;;;19.70;50.50;;;;;;6236972;28;20223;-76
2023/05/11 08:15:54;;;;;;;3.80;3.70;;;19.70;50.40;;;;;;6230466;28;20259;-75
2023/05/11 08:18:57;;;;;;;4.47;4.17;;;19.90;51.20;;;;;;6224947;28;20308;-77
2023/05/11 08:22:00;;;;;;;4.50;4.10;;;19.70;50.70;;;;;;6210535;28;20290;-79
2023/05/11 08:25:04;;;;;;;9.10;4.10;;;19.80;50.70;;;;;;6225213;28;20270;-76
2023/05/11 08:28:08;;;;;;;8.43;4.80;;;19.90;50.10;;;;;;6226588;28;20216;-79
2023/05/11 08:31:13;;;;;;;5.33;4.03;;;19.90;50.40;;;;;;6213264;28;20247;-79
2023/05/11 08:34:16;;;;;;;4.63;4.40;;;20.00;50.50;;;;;;6216682;28;20247;-77
2023/05/11 08:37:23;;;;;;;7.70;4.30;;;20.20;49.70;;;;;;6209099;28;20228;-79
2023/05/11 08:40:27;;;;;;;4.73;4.40;;;20.30;49.60;;;;;;6185095;28;20247;-80
2023/05/11 08:43:34;;;;;;;7.50;4.80;;;20.40;49.80;;;;;;6185233;28;20319;-80
2023/05/11 08:46:41;;;;;;;5.90;3.90;;;20.50;50.00;;;;;;6199957;28;20244;-79
2023/05/11 08:49:45;;;;;;;4.93;4.13;;;20.60;50.30;;;;;;6193995;28;20649;-78
2023/05/11 08:52:48;;;;;;;5.03;4.00;;;20.80;49.80;;;;;;6207830;28;20256;-79
2023/05/11 08:55:52;;;;;;;4.03;3.93;;;21.00;48.50;;;;;;6203868;28;20237;-79
2023/05/11 08:58:57;;;;;;;4.87;4.27;;;21.10;48.90;;;;;;6210247;28;20238;-79
2023/05/11 09:02:02;;;;;;;4.30;3.97;;;21.30;48.80;;;;;;6200570;28;20235;-77
2023/05/11 09:05:06;;;;;;;4.77;4.30;;;21.30;47.70;;;;;;6203528;28;20231;-76
2023/05/11 09:08:12;;;;;;;6.53;4.17;;;21.30;48.10;;;;;;6205731;28;20228;-81
2023/05/11 09:11:16;;;;;;;6.47;4.10;;;21.40;47.80;;;;;;6206600;28;20351;-80
2023/05/11 09:14:21;;;;;;;4.00;3.80;;;21.30;48.20;;;;;;6197120;28;20320;-78
2023/05/11 09:17:29;;;;;;;8.77;4.23;;;21.50;47.70;;;;;;6212640;28;20626;-80
2023/05/11 09:20:34;;;;;;;4.27;3.53;;;21.50;47.00;;;;;;6210491;28;20726;-80
2023/05/11 09:23:37;;;;;;;4.33;4.10;;;21.50;47.30;;;;;;6189829;28;20319;-78
2023/05/11 09:26:40;;;;;;;4.37;3.80;;;21.60;47.00;;;;;;6215396;28;20715;-80
2023/05/11 09:29:45;;;;;;;6.30;3.57;;;21.70;46.70;;;;;;6206634;28;20751;-80
2023/05/11 09:32:55;;;;;;;4.93;3.50;;;21.90;45.90;;;;;;6197375;28;20240;-78
2023/05/11 09:36:01;;;;;;;5.47;3.70;;;21.90;45.90;;;;;;6216480;28;20370;-78
2023/05/11 09:39:05;;;;;;;3.97;3.40;;;22.10;45.50;;;;;;6208146;28;20232;-78
2023/05/11 09:42:15;;;;;;;6.80;3.83;;;22.20;44.60;;;;;;6189554;28;20237;-78
2023/05/11 09:45:39;;;;;;;4.67;3.60;;;22.20;44.70;;;;;;6205290;28;20236;-80
2023/05/11 09:48:42;;;;;;;3.80;3.50;;;22.40;44.00;;;;;;6224306;28;20234;-77
2023/05/11 09:51:46;;;;;;;8.53;3.97;;;22.40;44.20;;;;;;6247206;28;20222;-78
2023/05/11 09:54:50;;;;;;;6.43;3.30;;;22.20;44.70;;;;;;6235414;28;20240;-78
2023/05/11 09:57:55;;;;;;;3.70;3.60;;;22.00;44.60;;;;;;6250069;28;20241;-79
2023/05/11 10:00:59;;;;;;;3.50;3.20;;;22.10;44.80;;;;;;6231960;28;20288;-80
2023/05/11 10:04:03;;;;;;;3.43;3.27;;;22.20;44.40;;;;;;6233200;28;20412;-79
2023/05/11 10:07:25;;;;;;;4.40;3.40;;;22.30;44.50;;;;;;6239347;28;20212;-77
2023/05/11 10:10:30;;;;;;;4.83;3.83;;;22.30;45.00;;;;;;6246735;28;20290;-77
2023/05/11 10:13:35;;;;;;;3.80;3.70;;;22.40;45.20;;;;;;6234915;28;20247;-75
2023/05/11 10:16:44;;;;;;;4.33;4.03;;;22.50;45.00;;;;;;6234697;28;20296;-77
2023/05/11 10:19:48;;;;;;;4.73;3.80;;;22.60;44.50;;;;;;6235816;28;20316;-77
2023/05/11 10:22:53;;;;;;;4.53;3.13;;;22.80;44.60;;;;;;6236928;28;20339;-76
2023/05/11 10:25:57;;;;;;;3.67;3.37;;;22.80;44.00;;;;;;6243301;28;20293;-76
2023/05/11 10:29:01;;;;;;;4.20;3.00;;;22.60;43.40;;;;;;6215527;28;20236;-79
2023/05/11 10:32:07;;;;;;;3.40;3.20;;;22.30;43.90;;;;;;6219315;28;20303;-77
2023/05/11 10:35:11;;;;;;;4.00;3.33;;;22.20;44.40;;;;;;6214453;28;20227;-78
2023/05/11 10:38:15;;;;;;;3.50;3.30;;;22.10;44.40;;;;;;6202154;28;20386;-80
2023/05/11 10:41:33;;;;;;;6.17;4.03;;;22.10;44.00;;;;;;6211116;28;20247;-80
2023/05/11 10:45:01;;;;;;;3.57;3.40;;;22.30;43.80;;;;;;6209860;28;20246;-78
2023/05/11 10:48:41;;;;;;;3.60;3.40;;;22.50;44.10;;;;;;6190722;28;20321;-78
2023/05/11 10:52:18;;;;;;;8.73;3.80;;;22.70;43.70;;;;;;6191025;28;20270;-79
2023/05/11 10:55:32;;;;;;;3.80;3.50;;;23.00;42.80;;;;;;6207877;28;20228;-79
2023/05/11 10:58:49;;;;;;;3.80;3.40;;;22.90;42.90;;;;;;6208686;28;20239;-77
2023/05/11 11:01:57;;;;;;;3.40;3.10;;;22.80;43.90;;;;;;6202066;28;20246;-78
2023/05/11 11:05:04;;;;;;;3.30;3.10;;;22.60;44.30;;;;;;6207828;28;20781;-79
2023/05/11 11:08:08;;;;;;;3.07;2.90;;;22.50;43.20;;;;;;6213429;28;20263;-78
2023/05/11 11:11:29;;;;;;;3.33;2.93;;;22.30;43.40;;;;;;6199752;28;20839;-79
2023/05/11 11:14:53;;;;;;;3.60;3.00;;;22.50;43.70;;;;;;6209934;28;20254;-78
2023/05/11 11:18:19;;;;;;;3.30;3.20;;;22.90;43.40;;;;;;6206883;28;20240;-80
2023/05/11 11:21:44;;;;;;;4.73;3.10;;;23.20;42.90;;;;;;6209134;28;20247;-81
2023/05/11 11:24:47;;;;;;;3.97;3.40;;;23.00;42.50;;;;;;6205250;28;20263;-79
2023/05/11 11:27:58;;;;;;;3.37;3.27;;;23.10;43.40;;;;;;6206094;28;20242;-80
2023/05/11 11:31:24;;;;;;;4.27;4.13;;;23.20;43.30;;;;;;6195941;28;20254;-78
2023/05/11 11:34:38;;;;;;;3.53;3.33;;;23.00;44.40;;;;;;6200658;28;20331;-77
2023/05/11 11:38:06;;;;;;;3.07;2.90;;;22.90;43.20;;;;;;6190867;28;20228;-78
2023/05/11 11:41:10;;;;;;;3.20;2.93;;;22.60;43.60;;;;;;6193714;28;20286;-78
2023/05/11 11:44:21;;;;;;;4.63;3.70;;;22.50;43.50;;;;;;6212245;28;20223;-79
2023/05/11 11:47:25;;;;;;;5.80;3.30;;;22.50;43.70;;;;;;6201844;28;20238;-79
2023/05/11 11:50:29;;;;;;;3.37;3.20;;;22.20;43.70;;;;;;6211352;28;20276;-79
2023/05/11 11:54:06;;;;;;;7.77;7.07;;;22.10;44.00;;;;;;6207449;28;20366;-77
2023/05/11 11:57:48;;;;;;;3.50;3.27;;;22.00;44.00;;;;;;6201376;28;20840;-79
2023/05/11 12:00:52;;;;;;;5.37;3.40;;;21.90;43.40;;;;;;6212349;28;20236;-78
2023/05/11 12:04:38;;;;;;;4.83;4.63;;;21.70;43.70;;;;;;6201325;28;20267;-76
2023/05/11 12:07:42;;;;;;;3.80;3.60;;;21.70;43.60;;;;;;6217845;28;20242;-79
2023/05/11 12:10:57;;;;;;;6.63;2.93;;;21.60;44.10;;;;;;6237110;28;20253;-80
2023/05/11 12:14:01;;;;;;;7.93;3.00;;;21.70;43.30;;;;;;6214409;28;20319;-79
2023/05/11 12:17:12;;;;;;;3.40;3.10;;;21.90;43.30;;;;;;6200021;28;20278;-79
2023/05/11 12:20:17;;;;;;;3.10;2.90;;;21.90;43.40;;;;;;6207913;28;20259;-79
2023/05/11 12:23:21;;;;;;;8.17;3.10;;;22.10;43.20;;;;;;6206271;28;20235;-79
2023/05/11 12:26:28;;;;;;;3.60;3.20;;;22.20;42.50;;;;;;6202902;28;20230;-81
2023/05/11 12:29:32;;;;;;;3.43;2.60;;;22.50;42.30;;;;;;6202509;28;20374;-79
2023/05/11 12:32:35;;;;;;;4.47;2.70;;;22.70;41.50;;;;;;6195674;28;20850;-81
2023/05/11 12:35:39;;;;;;;2.90;2.80;;;22.80;41.60;;;;;;6205217;28;20266;-79
2023/05/11 12:38:46;;;;;;;2.73;2.60;;;23.00;41.40;;;;;;6215338;28;20243;-78
2023/05/11 12:41:52;;;;;;;4.80;3.10;;;23.40;41.40;;;;;;6207949;28;20347;-80
2023/05/11 12:44:56;;;;;;;5.00;3.20;;;23.80;41.10;;;;;;6205803;28;20235;-76
2023/05/11 12:48:00;;;;;;;4.87;3.30;;;23.80;41.00;;;;;;6209626;28;20258;-81
2023/05/11 12:51:03;;;;;;;3.67;3.37;;;23.80;41.00;;;;;;6209824;28;20246;-80
2023/05/11 12:54:06;;;;;;;4.77;3.33;;;23.90;41.00;;;;;;6201392;28;20331;-79
2023/05/11 12:57:24;;;;;;;3.27;3.07;;;24.00;40.50;;;;;;6213340;28;20800;-81
2023/05/11 13:00:27;;;;;;;3.13;3.03;;;24.20;39.90;;;;;;6193548;28;20254;-79
2023/05/11 13:03:32;;;;;;;7.67;3.10;;;24.20;40.20;;;;;;6206036;28;20235;-77
2023/05/11 13:06:38;;;;;;;3.83;3.40;;;24.20;40.20;;;;;;6216382;28;20239;-79
2023/05/11 13:09:41;;;;;;;2.77;2.63;;;24.20;40.60;;;;;;6210045;28;20831;-78
2023/05/11 13:12:53;;;;;;;4.47;3.80;;;24.20;40.60;;;;;;6163340;28;20484;-78
2023/05/11 13:15:56;;;;;;;3.13;3.03;;;24.20;40.00;;;;;;6207390;28;20953;-82
2023/05/11 13:19:00;;;;;;;2.73;2.63;;;24.60;39.00;;;;;;6198843;28;20235;-79
2023/05/11 13:22:03;;;;;;;3.83;2.80;;;24.60;38.60;;;;;;6207115;28;20250;-79
2023/05/11 13:25:08;;;;;;;4.50;2.93;;;24.40;38.10;;;;;;6208184;28;20250;-79
2023/05/11 13:28:14;;;;;;;3.40;2.80;;;24.40;38.20;;;;;;6218147;28;20245;-78
2023/05/11 13:31:18;;;;;;;3.37;2.70;;;24.20;38.10;;;;;;6198752;28;24887;-79
2023/05/11 13:34:22;;;;;;;3.00;2.80;;;24.00;38.50;;;;;;6208037;28;20297;-78
2023/05/11 13:37:25;;;;;;;4.90;3.50;;;23.80;38.80;;;;;;6212873;28;20242;-81
2023/05/11 13:40:29;;;;;;;3.03;2.80;;;23.90;39.30;;;;;;6213155;28;20637;-78
2023/05/11 13:43:33;;;;;;;3.03;2.87;;;24.00;38.70;;;;;;6191803;28;20233;-80
2023/05/11 13:46:36;;;;;;;3.43;3.13;;;23.90;38.90;;;;;;6201651;28;20286;-79
2023/05/11 13:49:41;;;;;;;3.27;3.07;;;24.00;39.10;;;;;;6194654;28;20240;-79
2023/05/11 13:52:44;;;;;;;3.33;2.83;;;24.00;39.90;;;;;;6196453;28;20237;-80
2023/05/11 13:55:47;;;;;;;3.63;3.30;;;24.00;39.40;;;;;;6197022;28;20699;-77
2023/05/11 13:58:52;;;;;;;3.27;3.03;;;23.90;39.20;;;;;;6205423;28;20243;-78
2023/05/11 14:01:55;;;;;;;4.23;3.30;;;23.70;40.10;;;;;;6205272;28;20277;-81
2023/05/11 14:04:58;;;;;;;3.97;3.40;;;23.40;39.80;;;;;;6205143;28;20235;-78
2023/05/11 14:08:01;;;;;;;6.17;3.50;;;23.10;39.80;;;;;;6211549;28;20236;-80
2023/05/11 14:11:04;;;;;;;3.00;2.80;;;23.10;40.20;;;;;;6214387;28;20239;-80
2023/05/11 14:14:09;;;;;;;3.87;3.60;;;23.10;39.60;;;;;;6206068;28;20260;-79
2023/05/11 14:17:13;;;;;;;2.80;2.70;;;23.10;40.20;;;;;;6195494;28;20243;-80
2023/05/11 14:20:16;;;;;;;11.00;5.40;;;22.90;40.00;;;;;;6210045;28;20294;-79
2023/05/11 14:23:19;;;;;;;3.83;3.63;;;23.00;39.70;;;;;;6193534;28;20232;-79
2023/05/11 14:26:22;;;;;;;3.03;3.03;;;23.20;40.10;;;;;;6201970;28;20234;-79
2023/05/11 14:29:27;;;;;;;5.90;3.23;;;23.40;39.50;;;;;;6207311;28;20327;-81
2023/05/11 14:32:30;;;;;;;3.87;3.20;;;23.40;40.00;;;;;;6210437;28;20268;-78
2023/05/11 14:35:33;;;;;;;3.20;3.00;;;23.40;40.00;;;;;;6210484;28;20673;-79
2023/05/11 14:38:39;;;;;;;3.60;3.30;;;23.30;39.70;;;;;;6206943;28;20235;-80
2023/05/11 14:41:42;;;;;;;6.40;3.30;;;23.30;40.00;;;;;;6212363;28;20377;-81
2023/05/11 14:44:46;;;;;;;3.57;3.30;;;23.00;40.10;;;;;;6219556;28;20329;-77
2023/05/11 14:47:50;;;;;;;3.20;3.10;;;23.10;39.60;;;;;;6217524;28;20239;-80
2023/05/11 14:50:53;;;;;;;3.40;3.17;;;23.00;39.80;;;;;;6214374;28;20276;-78
2023/05/11 14:53:56;;;;;;;3.47;3.37;;;23.20;39.60;;;;;;6207988;28;20243;-79
2023/05/11 14:57:00;;;;;;;6.20;3.83;;;23.20;39.70;;;;;;6209403;28;20246;-77
2023/05/11 15:00:06;;;;;;;4.50;4.10;;;23.00;39.60;;;;;;6199235;28;20367;-79
2023/05/11 15:03:09;;;;;;;8.23;3.47;;;22.90;39.80;;;;;;6205536;28;20314;-78
2023/05/11 15:06:19;;;;;;;4.03;3.70;;;22.70;39.70;;;;;;6210141;28;20238;-77
2023/05/11 15:09:23;;;;;;;4.27;3.50;;;22.50;40.40;;;;;;6204052;28;20262;-76
2023/05/11 15:12:26;;;;;;;3.13;3.03;;;22.50;40.70;;;;;;6207146;28;20231;-78
2023/05/11 15:15:30;;;;;;;2.80;2.80;;;22.50;39.90;;;;;;6206518;28;20352;-78
2023/05/11 15:18:33;;;;;;;3.03;2.93;;;22.50;39.60;;;;;;6204596;28;20240;-80
2023/05/11 15:21:37;;;;;;;5.83;3.27;;;22.50;39.80;;;;;;6206529;28;20262;-77
2023/05/11 15:24:40;;;;;;;3.23;3.07;;;22.60;39.50;;;;;;6215037;28;20243;-78
2023/05/11 15:27:43;;;;;;;6.70;3.40;;;22.50;39.50;;;;;;6210130;28;20254;-79
2023/05/11 15:30:50;;;;;;;3.07;2.97;;;22.50;39.80;;;;;;6203245;28;20240;-80
2023/05/11 15:33:53;;;;;;;3.10;2.90;;;22.50;39.90;;;;;;6206334;28;20242;-79
2023/05/11 15:36:57;;;;;;;3.20;3.10;;;22.50;39.20;;;;;;6207338;28;20407;-78
2023/05/11 15:40:00;;;;;;;3.87;3.53;;;22.50;39.40;;;;;;6201042;28;20239;-80
2023/05/11 15:43:03;;;;;;;3.30;3.00;;;22.50;39.30;;;;;;6207626;28;20228;-79
2023/05/11 15:46:08;;;;;;;2.80;2.80;;;22.60;39.50;;;;;;6205335;28;20251;-80
2023/05/11 15:49:11;;;;;;;4.13;3.00;;;22.70;40.00;;;;;;6205974;28;20939;-81
2023/05/11 15:52:14;;;;;;;2.93;2.77;;;22.70;41.30;;;;;;6204723;28;20246;-79
2023/05/11 15:55:17;;;;;;;3.47;3.27;;;22.70;40.00;;;;;;6208553;28;20231;-77
2023/05/11 15:58:21;;;;;;;3.10;3.00;;;22.70;40.30;;;;;;6214987;28;20345;-80
2023/05/11 16:01:25;;;;;;;3.00;2.90;;;22.70;39.80;;;;;;6202535;28;20235;-78